createdAt,value
2018-09-21T00:00:20.469Z,17.20
2018-09-21T00:02:50.662Z,17.20
2018-09-21T00:05:20.699Z,17.20
2018-09-21T00:07:51.552Z,17.10
2018-09-21T00:10:21.704Z,17.10
2018-09-21T00:12:52.501Z,17.10
2018-09-21T00:15:23.157Z,17.10
2018-09-21T00:17:53.426Z,17.10
2018-09-21T00:20:23.499Z,17.00
2018-09-21T00:22:53.963Z,17.00
2018-09-21T00:25:25.283Z,17.10
2018-09-21T00:27:55.592Z,17.00
2018-09-21T00:30:25.958Z,17.00
2018-09-21T00:32:56.023Z,17.00
2018-09-21T00:35:26.225Z,17.10
2018-09-21T00:37:56.623Z,17.10
2018-09-21T00:40:26.881Z,17.10
2018-09-21T00:42:57.070Z,17.10
2018-09-21T00:45:27.546Z,17.10
2018-09-21T00:47:57.680Z,17.10
2018-09-21T00:50:27.672Z,17.10
2018-09-21T00:52:57.775Z,17.10
2018-09-21T00:55:28.186Z,17.10
2018-09-21T00:57:58.926Z,17.10
2018-09-21T01:00:28.973Z,17.10
2018-09-21T01:02:59.285Z,17.10
2018-09-21T01:05:29.254Z,17.10
2018-09-21T01:07:59.323Z,17.10
2018-09-21T01:10:29.532Z,17.10
2018-09-21T01:12:59.631Z,17.20
2018-09-21T01:15:30.404Z,17.20
2018-09-21T01:18:00.517Z,17.20
2018-09-21T01:20:30.753Z,17.20
2018-09-21T01:23:00.888Z,17.20
2018-09-21T01:25:31.253Z,17.30
2018-09-21T01:28:01.840Z,17.30
2018-09-21T01:30:31.923Z,17.20
2018-09-21T01:33:02.005Z,17.30
2018-09-21T01:35:32.932Z,17.30
2018-09-21T01:38:03.187Z,17.20
2018-09-21T01:40:33.208Z,17.20
2018-09-21T01:43:03.831Z,17.20
2018-09-21T01:45:33.926Z,17.20
2018-09-21T01:48:04.596Z,17.00
2018-09-21T01:50:35.090Z,17.00
2018-09-21T01:53:05.164Z,16.90
2018-09-21T01:55:35.425Z,16.90
2018-09-21T01:58:05.589Z,16.80
2018-09-21T02:00:35.591Z,16.80
2018-09-21T02:03:06.181Z,16.80
2018-09-21T02:05:36.249Z,16.70
2018-09-21T02:08:06.778Z,16.70
2018-09-21T02:10:37.083Z,16.70
2018-09-21T02:13:07.946Z,16.60
2018-09-21T02:15:37.948Z,16.60
2018-09-21T02:18:08.069Z,16.50
2018-09-21T02:20:38.080Z,16.50
2018-09-21T02:23:08.174Z,16.50
2018-09-21T02:25:38.310Z,16.40
2018-09-21T02:28:08.917Z,16.40
2018-09-21T02:30:39.902Z,16.40
2018-09-21T02:33:17.209Z,16.30
2018-09-21T02:35:47.618Z,16.30
2018-09-21T02:38:17.662Z,16.30
2018-09-21T02:40:47.684Z,16.30
2018-09-21T02:43:18.598Z,16.40
2018-09-21T02:45:49.048Z,16.40
2018-09-21T02:48:19.548Z,16.50
2018-09-21T02:50:49.588Z,16.50
2018-09-21T02:53:19.600Z,16.50
2018-09-21T02:55:49.684Z,16.50
2018-09-21T02:58:20.223Z,16.50
2018-09-21T03:00:50.452Z,16.40
2018-09-21T03:03:21.619Z,16.40
2018-09-21T03:05:51.647Z,16.40
2018-09-21T03:08:21.832Z,16.40
2018-09-21T03:10:52.161Z,16.40
2018-09-21T03:13:22.587Z,16.50
2018-09-21T03:15:54.010Z,16.50
2018-09-21T03:18:24.362Z,16.50
2018-09-21T03:20:54.397Z,16.50
2018-09-21T03:23:24.700Z,16.50
2018-09-21T03:25:55.265Z,16.40
2018-09-21T03:28:26.113Z,16.50
2018-09-21T03:30:57.009Z,16.50
2018-09-21T03:33:27.860Z,16.50
2018-09-21T03:35:57.910Z,16.70
2018-09-21T03:38:28.569Z,16.70
2018-09-21T03:40:59.017Z,16.80
2018-09-21T03:43:30.334Z,16.70
2018-09-21T03:46:00.482Z,16.70
2018-09-21T03:48:30.560Z,16.60
2018-09-21T03:51:01.336Z,16.60
2018-09-21T03:53:31.740Z,16.60
2018-09-21T03:56:01.669Z,16.60
2018-09-21T03:58:31.826Z,16.60
2018-09-21T04:01:02.016Z,16.60
2018-09-21T04:03:32.465Z,16.50
2018-09-21T04:06:02.517Z,16.50
2018-09-21T04:08:32.704Z,16.50
2018-09-21T04:11:03.021Z,16.50
2018-09-21T04:13:33.080Z,16.60
2018-09-21T04:16:03.138Z,16.50
2018-09-21T04:18:33.409Z,16.50
2018-09-21T04:21:03.574Z,16.50
2018-09-21T04:23:34.152Z,16.50
2018-09-21T04:26:04.225Z,16.50
2018-09-21T04:28:34.240Z,16.40
2018-09-21T04:31:04.525Z,16.40
2018-09-21T04:33:34.897Z,16.40
2018-09-21T04:36:05.905Z,16.40
2018-09-21T04:38:36.242Z,16.30
2018-09-21T04:41:06.789Z,16.30
2018-09-21T04:43:38.038Z,16.30
2018-09-21T04:46:08.545Z,16.30
2018-09-21T04:48:39.577Z,16.20
2018-09-21T04:51:10.056Z,16.10
2018-09-21T04:53:40.241Z,16.10
2018-09-21T04:56:10.530Z,16.10
2018-09-21T04:58:40.652Z,16.00
2018-09-21T05:01:11.641Z,15.90
2018-09-21T05:03:42.244Z,15.90
2018-09-21T05:06:12.336Z,15.80
2018-09-21T05:08:42.382Z,15.80
2018-09-21T05:11:12.922Z,15.80
2018-09-21T05:13:43.150Z,15.80
2018-09-21T05:16:13.556Z,15.80
2018-09-21T05:18:44.026Z,15.80
2018-09-21T05:21:14.097Z,15.90
2018-09-21T05:23:44.239Z,15.90
2018-09-21T05:26:14.302Z,15.90
2018-09-21T05:28:44.377Z,16.00
2018-09-21T05:31:15.267Z,16.00
2018-09-21T05:33:45.675Z,16.10
2018-09-21T05:36:16.224Z,16.10
2018-09-21T05:38:46.366Z,16.20
2018-09-21T05:41:17.135Z,16.20
2018-09-21T05:43:47.529Z,16.30
2018-09-21T05:46:17.642Z,16.40
2018-09-21T05:48:47.982Z,16.40
2018-09-21T05:51:18.055Z,16.50
2018-09-21T05:53:48.900Z,16.60
2018-09-21T05:56:18.995Z,16.70
2018-09-21T05:58:49.474Z,16.80
2018-09-21T06:01:19.969Z,16.90
2018-09-21T06:03:49.954Z,16.90
2018-09-21T06:06:20.073Z,17.00
2018-09-21T06:08:50.116Z,17.10
2018-09-21T06:11:20.684Z,17.30
2018-09-21T06:13:51.114Z,17.40
2018-09-21T06:16:21.133Z,17.50
2018-09-21T06:18:51.212Z,17.70
2018-09-21T06:21:21.317Z,17.80
2018-09-21T06:23:52.029Z,17.90
2018-09-21T06:26:23.085Z,18.00
2018-09-21T06:28:53.895Z,18.20
2018-09-21T06:31:24.519Z,18.20
2018-09-21T06:33:55.057Z,18.40
2018-09-21T06:36:26.103Z,18.50
2018-09-21T06:38:56.138Z,18.60
2018-09-21T06:41:26.634Z,18.80
2018-09-21T06:43:57.139Z,18.90
2018-09-21T06:46:28.108Z,19.00
2018-09-21T06:48:58.513Z,19.10
2018-09-21T06:51:28.565Z,19.20
2018-09-21T06:53:58.710Z,19.20
2018-09-21T06:56:29.193Z,19.30
2018-09-21T06:58:59.666Z,19.30
2018-09-21T07:01:29.714Z,19.40
2018-09-21T07:03:59.731Z,19.40
2018-09-21T07:06:30.308Z,19.50
2018-09-21T07:09:00.831Z,19.60
2018-09-21T07:11:31.297Z,19.70
2018-09-21T07:14:04.071Z,19.80
2018-09-21T07:16:34.757Z,19.90
2018-09-21T07:19:05.507Z,20.10
2018-09-21T07:21:36.489Z,20.30
2018-09-21T07:24:07.012Z,20.50
2018-09-21T07:26:37.925Z,20.60
2018-09-21T07:29:08.036Z,20.70
2018-09-21T07:31:38.446Z,20.80
2018-09-21T07:34:08.815Z,20.90
2018-09-21T07:36:39.271Z,21.10
2018-09-21T07:39:09.373Z,21.20
2018-09-21T07:41:40.148Z,21.30
2018-09-21T07:44:10.314Z,21.50
2018-09-21T07:46:41.026Z,21.60
2018-09-21T07:49:11.487Z,21.80
2018-09-21T07:51:41.503Z,21.90
2018-09-21T07:54:11.549Z,22.10
2018-09-21T07:56:41.801Z,22.20
2018-09-21T07:59:12.326Z,22.30
2018-09-21T08:01:43.980Z,22.40
2018-09-21T08:04:14.078Z,22.60
2018-09-21T08:06:44.623Z,22.70
2018-09-21T08:09:15.287Z,22.80
2018-09-21T08:11:45.405Z,22.90
2018-09-21T08:14:16.001Z,22.90
2018-09-21T08:16:46.576Z,22.90
2018-09-21T08:19:16.984Z,23.00
2018-09-21T08:21:47.531Z,23.10
2018-09-21T08:24:17.697Z,23.20
2018-09-21T08:26:47.807Z,23.40
2018-09-21T08:29:17.934Z,23.50
2018-09-21T08:31:47.955Z,23.70
2018-09-21T08:34:18.280Z,23.90
2018-09-21T08:36:48.287Z,24.10
2018-09-21T08:39:18.352Z,24.20
2018-09-21T08:41:48.432Z,24.40
2018-09-21T08:44:18.449Z,24.60
2018-09-21T08:46:48.844Z,24.80
2018-09-21T08:49:19.624Z,25.00
2018-09-21T08:51:49.739Z,25.30
2018-09-21T08:54:19.861Z,25.70
2018-09-21T08:56:50.208Z,26.20
2018-09-21T08:59:20.228Z,26.60
2018-09-21T09:01:50.619Z,27.00
2018-09-21T09:04:20.606Z,27.40
2018-09-21T09:06:51.397Z,27.50
2018-09-21T09:09:21.483Z,27.40
2018-09-21T09:11:52.125Z,27.40
2018-09-21T09:14:23.165Z,27.40
2018-09-21T09:16:53.420Z,27.50
2018-09-21T09:19:23.439Z,27.60
2018-09-21T09:21:53.837Z,27.90
2018-09-21T09:24:23.986Z,28.20
2018-09-21T09:26:54.478Z,28.50
2018-09-21T09:29:24.438Z,28.50
2018-09-21T09:31:55.330Z,28.70
2018-09-21T09:34:25.382Z,28.70
2018-09-21T09:36:55.446Z,28.70
2018-09-21T09:39:25.995Z,28.70
2018-09-21T09:41:56.262Z,28.70
2018-09-21T09:44:26.219Z,28.70
2018-09-21T09:46:56.310Z,28.80
2018-09-21T09:49:26.526Z,28.90
2018-09-21T09:51:56.626Z,28.90
2018-09-21T09:54:26.734Z,29.10
2018-09-21T09:56:56.851Z,29.30
2018-09-21T09:59:26.950Z,29.50
2018-09-21T10:01:57.382Z,29.70
2018-09-21T10:04:27.366Z,30.00
2018-09-21T10:06:57.914Z,30.10
2018-09-21T10:09:27.859Z,30.30
2018-09-21T10:11:57.963Z,30.30
2018-09-21T10:14:28.560Z,30.20
2018-09-21T10:16:58.849Z,30.10
2018-09-21T10:19:29.057Z,30.20
2018-09-21T10:21:59.442Z,30.30
2018-09-21T10:24:29.817Z,30.50
2018-09-21T10:26:59.833Z,30.70
2018-09-21T10:29:29.841Z,30.90
2018-09-21T10:32:00.219Z,31.10
2018-09-21T10:34:34.496Z,31.30
2018-09-21T10:37:04.727Z,31.50
2018-09-21T10:39:34.810Z,31.70
2018-09-21T10:42:05.626Z,32.00
2018-09-21T10:44:35.872Z,32.00
2018-09-21T10:47:05.969Z,32.20
2018-09-21T10:49:36.601Z,32.30
2018-09-21T10:52:06.600Z,32.30
2018-09-21T10:54:36.838Z,32.20
2018-09-21T10:57:07.983Z,31.90
2018-09-21T10:59:37.998Z,31.90
2018-09-21T11:02:08.553Z,31.90
2018-09-21T11:04:39.015Z,31.90
2018-09-21T11:07:09.061Z,31.90
2018-09-21T11:09:39.105Z,31.90
2018-09-21T11:12:09.112Z,32.00
2018-09-21T11:14:39.112Z,32.10
2018-09-21T11:17:09.705Z,32.20
2018-09-21T11:19:40.587Z,32.30
2018-09-21T11:22:10.603Z,32.20
2018-09-21T11:24:40.652Z,32.10
2018-09-21T11:27:11.148Z,32.10
2018-09-21T11:29:41.159Z,32.30
2018-09-21T11:32:12.133Z,32.50
2018-09-21T11:34:42.196Z,32.60
2018-09-21T11:37:12.140Z,32.50
2018-09-21T11:39:42.220Z,32.40
2018-09-21T11:42:12.685Z,32.40
2018-09-21T11:44:42.586Z,32.40
2018-09-21T11:47:13.275Z,32.20
2018-09-21T11:49:43.718Z,32.00
2018-09-21T11:52:14.039Z,31.90
2018-09-21T11:54:44.701Z,31.80
2018-09-21T11:57:14.814Z,31.90
2018-09-21T11:59:44.906Z,31.90
2018-09-21T12:02:15.028Z,32.10
2018-09-21T12:04:45.694Z,32.00
2018-09-21T12:07:15.747Z,32.00
2018-09-21T12:09:46.331Z,32.00
2018-09-21T12:12:16.957Z,31.90
2018-09-21T12:14:47.038Z,31.80
2018-09-21T12:17:17.597Z,31.70
2018-09-21T12:19:47.914Z,31.70
2018-09-21T12:22:18.321Z,31.70
2018-09-21T12:24:48.433Z,31.80
2018-09-21T12:27:19.034Z,31.70
2018-09-21T12:29:49.464Z,31.50
2018-09-21T12:32:19.427Z,31.50
2018-09-21T12:34:50.079Z,31.40
2018-09-21T12:37:20.130Z,31.40
2018-09-21T12:39:50.254Z,31.20
2018-09-21T12:42:20.268Z,31.00
2018-09-21T12:44:50.340Z,31.10
2018-09-21T12:47:20.800Z,31.20
2018-09-21T12:49:50.853Z,31.30
2018-09-21T12:52:20.956Z,31.30
2018-09-21T12:54:51.050Z,31.20
2018-09-21T12:57:21.056Z,31.10
2018-09-21T12:59:51.021Z,31.10
2018-09-21T13:02:21.281Z,31.10
2018-09-21T13:04:51.836Z,31.20
2018-09-21T13:07:21.879Z,31.20
2018-09-21T13:09:52.828Z,31.20
2018-09-21T13:12:22.848Z,31.00
2018-09-21T13:14:53.459Z,30.70
2018-09-21T13:17:23.746Z,30.50
2018-09-21T13:19:53.848Z,30.30
2018-09-21T13:22:24.527Z,30.20
2018-09-21T13:24:55.877Z,30.00
2018-09-21T13:27:25.880Z,29.90
2018-09-21T13:29:56.057Z,29.80
2018-09-21T13:32:26.145Z,29.80
2018-09-21T13:34:56.752Z,29.70
2018-09-21T13:37:26.826Z,29.70
2018-09-21T13:39:57.085Z,29.70
2018-09-21T13:42:27.099Z,29.70
2018-09-21T13:44:57.452Z,29.60
2018-09-21T13:47:27.511Z,29.40
2018-09-21T13:49:57.578Z,29.20
2018-09-21T13:52:27.870Z,28.90
2018-09-21T13:54:57.868Z,28.60
2018-09-21T13:57:28.346Z,28.40
2018-09-21T13:59:58.402Z,28.20
2018-09-21T14:02:28.382Z,28.10
2018-09-21T14:04:59.563Z,28.10
2018-09-21T14:07:29.646Z,28.10
2018-09-21T14:10:00.138Z,28.20
2018-09-21T14:12:30.131Z,28.20
2018-09-21T14:15:00.282Z,28.20
2018-09-21T14:17:30.405Z,28.10
2018-09-21T14:20:01.261Z,28.00
2018-09-21T14:22:31.763Z,27.90
2018-09-21T14:25:02.985Z,27.70
2018-09-21T14:27:33.966Z,27.60
2018-09-21T14:30:04.407Z,27.50
2018-09-21T14:32:34.570Z,27.30
2018-09-21T14:35:04.620Z,27.20
2018-09-21T14:37:34.743Z,27.10
2018-09-21T14:40:05.466Z,26.80
2018-09-21T14:42:35.957Z,26.60
2018-09-21T14:45:06.373Z,26.40
2018-09-21T14:47:36.385Z,26.30
2018-09-21T14:50:06.524Z,26.00
2018-09-21T14:52:36.545Z,25.80
2018-09-21T14:55:07.765Z,25.70
2018-09-21T14:57:37.892Z,25.60
2018-09-21T15:00:09.004Z,25.30
2018-09-21T15:02:39.424Z,25.00
2018-09-21T15:05:09.820Z,24.90
2018-09-21T15:07:39.903Z,24.70
2018-09-21T15:10:09.918Z,24.70
2018-09-21T15:12:39.897Z,24.70
2018-09-21T15:15:09.919Z,24.60
2018-09-21T15:17:39.959Z,24.40
2018-09-21T15:20:10.318Z,23.80
2018-09-21T15:22:40.396Z,23.20
2018-09-21T15:25:11.056Z,22.70
2018-09-21T15:27:41.150Z,22.40
2018-09-21T15:30:11.310Z,22.30
2018-09-21T15:32:42.040Z,22.30
2018-09-21T15:35:12.532Z,22.30
2018-09-21T15:37:43.019Z,22.30
2018-09-21T15:40:13.196Z,22.40
2018-09-21T15:42:43.300Z,22.60
2018-09-21T15:45:13.466Z,22.70
2018-09-21T15:47:43.456Z,22.80
2018-09-21T15:50:14.465Z,22.90
2018-09-21T15:52:45.284Z,23.00
2018-09-21T15:55:15.387Z,23.00
2018-09-21T15:57:46.006Z,23.10
2018-09-21T16:00:17.077Z,23.10
2018-09-21T16:02:47.132Z,23.10
2018-09-21T16:05:17.577Z,23.10
2018-09-21T16:07:48.092Z,23.10
2018-09-21T16:10:18.253Z,23.10
2018-09-21T16:12:48.337Z,23.10
2018-09-21T16:15:18.469Z,23.20
2018-09-21T16:17:48.968Z,23.20
2018-09-21T16:20:19.069Z,23.20
2018-09-21T16:22:49.681Z,23.10
2018-09-21T16:25:20.340Z,22.40
2018-09-21T16:27:50.563Z,20.40
2018-09-21T16:30:20.701Z,18.40
2018-09-21T16:32:51.307Z,16.90
2018-09-21T16:35:21.328Z,16.00
2018-09-21T16:37:51.441Z,15.50
2018-09-21T16:40:21.526Z,15.20
2018-09-21T16:42:51.588Z,15.10
2018-09-21T16:45:22.296Z,15.00
2018-09-21T16:47:53.037Z,14.80
2018-09-21T16:50:23.660Z,14.70
2018-09-21T16:52:53.781Z,14.60
2018-09-21T16:55:24.294Z,14.50
2018-09-21T16:57:55.184Z,14.40
2018-09-21T17:00:25.585Z,14.30
2018-09-21T17:02:55.650Z,14.20
2018-09-21T17:05:26.329Z,14.20
2018-09-21T17:07:57.094Z,14.10
2018-09-21T17:10:27.340Z,14.10
2018-09-21T17:12:58.032Z,14.00
2018-09-21T17:15:28.639Z,14.00
2018-09-21T17:17:59.087Z,14.00
2018-09-21T17:20:29.278Z,14.00
2018-09-21T17:22:59.400Z,14.00
2018-09-21T17:25:29.463Z,14.00
2018-09-21T17:27:59.885Z,14.00
2018-09-21T17:30:30.482Z,14.00
2018-09-21T17:33:00.610Z,14.00
2018-09-21T17:35:31.023Z,14.00
2018-09-21T17:38:01.071Z,13.90
2018-09-21T17:40:31.671Z,13.90
2018-09-21T17:43:02.208Z,13.90
2018-09-21T17:45:32.983Z,13.90
2018-09-21T17:48:03.540Z,13.90
2018-09-21T17:50:34.093Z,13.80
2018-09-21T17:53:04.267Z,13.80
2018-09-21T17:55:35.394Z,13.70
2018-09-21T17:58:05.595Z,13.80
2018-09-21T18:00:36.306Z,13.80
2018-09-21T18:03:06.331Z,13.80
2018-09-21T18:05:36.364Z,13.80
2018-09-21T18:08:07.720Z,13.90
2018-09-21T18:10:37.779Z,13.80
2018-09-21T18:13:08.684Z,13.90
2018-09-21T18:15:38.827Z,13.90
2018-09-21T18:18:09.962Z,13.90
2018-09-21T18:20:40.490Z,13.80
2018-09-21T18:23:10.694Z,13.80
2018-09-21T18:25:40.999Z,13.80
2018-09-21T18:28:11.066Z,13.80
2018-09-21T18:30:41.189Z,13.80
2018-09-21T18:33:11.267Z,13.80
2018-09-21T18:35:42.306Z,13.80
2018-09-21T18:38:12.700Z,13.90
2018-09-21T18:40:43.140Z,13.90
2018-09-21T18:43:13.287Z,13.90
2018-09-21T18:45:43.485Z,13.90
2018-09-21T18:48:13.622Z,13.90
2018-09-21T18:50:43.737Z,13.90
2018-09-21T18:53:14.264Z,13.90
2018-09-21T18:55:44.612Z,13.90
2018-09-21T18:58:14.725Z,14.00
2018-09-21T19:00:45.037Z,14.00
2018-09-21T19:03:15.467Z,14.00
2018-09-21T19:05:46.075Z,14.00
2018-09-21T19:08:16.216Z,14.00
2018-09-21T19:10:46.342Z,14.00
2018-09-21T19:13:16.885Z,14.00
2018-09-21T19:15:47.855Z,14.00
2018-09-21T19:18:23.136Z,14.00
2018-09-21T19:20:53.153Z,13.90
2018-09-21T19:23:23.798Z,13.80
2018-09-21T19:25:54.176Z,13.70
2018-09-21T19:28:24.700Z,13.70
2018-09-21T19:30:54.766Z,13.60
2018-09-21T19:33:25.382Z,13.60
2018-09-21T19:35:56.102Z,13.50
2018-09-21T19:38:26.756Z,13.50
2018-09-21T19:40:56.825Z,13.50
2018-09-21T19:43:27.415Z,13.50
2018-09-21T19:45:57.491Z,13.50
2018-09-21T19:48:28.490Z,13.50
2018-09-21T19:50:58.566Z,13.50
2018-09-21T19:53:28.643Z,13.50
2018-09-21T19:55:58.748Z,13.50
2018-09-21T19:58:28.824Z,13.50
2018-09-21T20:00:59.025Z,13.50
2018-09-21T20:03:29.807Z,13.40
2018-09-21T20:06:00.276Z,13.40
2018-09-21T20:08:30.555Z,13.40
2018-09-21T20:11:00.630Z,13.40
2018-09-21T20:13:31.520Z,13.40
2018-09-21T20:16:01.543Z,13.40
2018-09-21T20:18:32.070Z,13.50
2018-09-21T20:21:02.443Z,13.50
2018-09-21T20:23:32.556Z,13.40
2018-09-21T20:26:02.587Z,13.40
2018-09-21T20:28:32.737Z,13.50
2018-09-21T20:31:07.890Z,13.40
2018-09-21T20:33:38.470Z,13.50
2018-09-21T20:36:09.203Z,13.40
2018-09-21T20:38:39.351Z,13.40
2018-09-21T20:41:09.752Z,13.40
2018-09-21T20:43:40.319Z,13.40
2018-09-21T20:46:10.826Z,13.40
2018-09-21T20:48:41.494Z,13.40
2018-09-21T20:51:11.537Z,13.40
2018-09-21T20:53:42.158Z,13.40
2018-09-21T20:56:12.701Z,13.40
2018-09-21T20:58:42.726Z,13.40
2018-09-21T21:01:12.773Z,13.40
2018-09-21T21:03:43.178Z,13.40
2018-09-21T21:06:13.775Z,13.40
2018-09-21T21:08:44.154Z,13.40
2018-09-21T21:11:14.747Z,13.40
2018-09-21T21:13:45.088Z,13.50
2018-09-21T21:16:15.889Z,13.50
2018-09-21T21:18:45.937Z,13.40
2018-09-21T21:21:16.444Z,13.40
2018-09-21T21:23:47.088Z,13.40
2018-09-21T21:26:17.604Z,13.40
2018-09-21T21:28:47.582Z,13.40
2018-09-21T21:31:18.236Z,13.40
2018-09-21T21:33:49.226Z,13.50
2018-09-21T21:36:19.842Z,13.50
2018-09-21T21:38:50.177Z,13.50
2018-09-21T21:41:20.393Z,13.50
2018-09-21T21:43:50.875Z,13.50
2018-09-21T21:46:20.998Z,13.40
2018-09-21T21:48:52.198Z,13.40
2018-09-21T21:51:22.512Z,13.40
2018-09-21T21:53:52.639Z,13.40
2018-09-21T21:56:22.886Z,13.40
2018-09-21T21:58:53.429Z,13.40
2018-09-21T22:01:28.750Z,13.40
2018-09-21T22:03:58.857Z,13.40
2018-09-21T22:06:28.919Z,13.50
2018-09-21T22:08:58.978Z,13.50
2018-09-21T22:11:34.219Z,13.50
2018-09-21T22:14:08.561Z,13.50
2018-09-21T22:16:38.710Z,13.50
2018-09-21T22:19:09.287Z,13.40
2018-09-21T22:21:39.389Z,13.50
2018-09-21T22:24:09.778Z,13.50
2018-09-21T22:26:40.103Z,13.50
2018-09-21T22:29:10.305Z,13.50
2018-09-21T22:31:40.965Z,13.50
2018-09-21T22:34:12.979Z,13.50
2018-09-21T22:36:43.421Z,13.50
2018-09-21T22:39:14.019Z,13.60
2018-09-21T22:41:44.750Z,13.60
2018-09-21T22:44:15.385Z,13.70
2018-09-21T22:46:46.017Z,13.70
2018-09-21T22:49:22.051Z,13.80
2018-09-21T22:51:52.509Z,13.80
2018-09-21T22:54:22.610Z,13.90
2018-09-21T22:56:52.626Z,13.90
2018-09-21T22:59:22.709Z,13.90
2018-09-21T23:01:52.882Z,14.00
2018-09-21T23:04:23.471Z,14.00
2018-09-21T23:06:54.972Z,13.90
2018-09-21T23:09:25.041Z,13.90
2018-09-21T23:11:56.724Z,13.80
2018-09-21T23:14:27.109Z,13.80
2018-09-21T23:16:57.539Z,13.80
2018-09-21T23:19:28.292Z,13.70
2018-09-21T23:21:59.400Z,13.70
2018-09-21T23:24:30.509Z,13.70
2018-09-21T23:27:01.136Z,13.60
2018-09-21T23:29:31.662Z,13.50
2018-09-21T23:32:01.695Z,13.50
2018-09-21T23:34:31.877Z,13.50
2018-09-21T23:37:02.518Z,13.50
2018-09-21T23:39:32.737Z,13.50
2018-09-21T23:42:02.850Z,13.50
2018-09-21T23:44:33.312Z,13.50
2018-09-21T23:47:03.458Z,13.40
2018-09-21T23:49:33.525Z,13.40
2018-09-21T23:52:03.625Z,13.40
2018-09-21T23:54:34.128Z,13.30
2018-09-21T23:57:04.546Z,13.30
2018-09-21T23:59:34.682Z,13.30
